Richardton, North Dakota
Current Conditions -  °F | °C
As of 2:35 PM on Thursday 23 Oct 2014 (Local Time) from KD57 Reporting Station
Clear Clear  
Wind Chill: 23°   Ceiling: Unl
Heat Index: 23°   Visibility: 10mi
Dew Point: -4°   Wind: 15mph
Humidity: 16%   Direction: 240°WSW
Pressure: 29.8"   Gusts: NA
Location:  46.88°N, 102.32°W
Report Text: KD57 232035Z AUTO 24013KT 10SM CLR 23/M04 A2980 RMK AO2 TSNO
Loading
Personal Weather Stations






























Interactive Weather Map
Tropical Storm Tracking
New forecast layout! Learn more

10-Day Weather Forecast

Advertisements
Track Severe Weather on mobile